ACA402 CYYZ-CYUL
Flight info
| Callsign | ACA402 |
|---|---|
| Flight time | 0h 49m |
| Altitude | 31000 |
| Route | DEDKI5 MIGLO HABBS7 |
| Aircraft | A320/M-SDE3FGHIRWY/LB1 |
Departure
| Time | 2026-05-07 18:39 |
|---|---|
| Airport | Toronto Pearson International Airport (CYYZ) |
Arrival
| Time | 2026-05-07 19:29 |
|---|---|
| Airport | Montreal / Pierre Elliott Trudeau International Airport (CYUL) |
| Time | Latitude | Longitude | Altitude | Speed | Heading |
|---|---|---|---|---|---|
| 2026-05-07 18:13 | 43.68588 | -79.62319 | 569 ft | 0 kts | 144° |
| 2026-05-07 18:13 | 43.68592 | -79.62324 | 569 ft | 0 kts | 144° |
| 2026-05-07 18:15 | 43.68593 | -79.62324 | 569 ft | 0 kts | 144° |
| 2026-05-07 18:26 | 43.68593 | -79.62325 | 561 ft | 0 kts | 144° |
| 2026-05-07 18:28 | 43.68594 | -79.62325 | 561 ft | 1 kts | 144° |
| 2026-05-07 18:28 | 43.68614 | -79.62343 | 568 ft | 4 kts | 153° |
| 2026-05-07 18:29 | 43.68638 | -79.62358 | 571 ft | 4 kts | 161° |
| 2026-05-07 18:29 | 43.68664 | -79.62370 | 570 ft | 4 kts | 155° |
| 2026-05-07 18:29 | 43.68675 | -79.62377 | 567 ft | 1 kts | 144° |
| 2026-05-07 18:32 | 43.68669 | -79.62376 | 569 ft | 3 kts | 169° |
| 2026-05-07 18:32 | 43.68638 | -79.62413 | 565 ft | 8 kts | 235° |
| 2026-05-07 18:32 | 43.68602 | -79.62484 | 565 ft | 10 kts | 234° |
| 2026-05-07 18:32 | 43.68553 | -79.62562 | 563 ft | 12 kts | 227° |
| 2026-05-07 18:33 | 43.68502 | -79.62650 | 565 ft | 12 kts | 226° |
| 2026-05-07 18:33 | 43.68476 | -79.62742 | 562 ft | 10 kts | 301° |
| 2026-05-07 18:33 | 43.68526 | -79.62810 | 565 ft | 9 kts | 317° |
| 2026-05-07 18:33 | 43.68572 | -79.62869 | 562 ft | 10 kts | 317° |
| 2026-05-07 18:34 | 43.68626 | -79.62940 | 561 ft | 12 kts | 316° |
| 2026-05-07 18:34 | 43.68689 | -79.63023 | 561 ft | 13 kts | 317° |
| 2026-05-07 18:34 | 43.68759 | -79.63114 | 562 ft | 14 kts | 316° |
| 2026-05-07 18:34 | 43.68835 | -79.63213 | 562 ft | 16 kts | 316° |
| 2026-05-07 18:35 | 43.68916 | -79.63319 | 563 ft | 16 kts | 316° |
| 2026-05-07 18:35 | 43.68998 | -79.63425 | 564 ft | 17 kts | 317° |
| 2026-05-07 18:35 | 43.69076 | -79.63528 | 565 ft | 13 kts | 319° |
| 2026-05-07 18:35 | 43.69144 | -79.63496 | 565 ft | 10 kts | 48° |
| 2026-05-07 18:36 | 43.69174 | -79.63452 | 571 ft | 0 kts | 43° |
| 2026-05-07 18:36 | 43.69179 | -79.63445 | 568 ft | 6 kts | 42° |
| 2026-05-07 18:36 | 43.69245 | -79.63422 | 566 ft | 10 kts | 2° |
| 2026-05-07 18:36 | 43.69291 | -79.63421 | 568 ft | 10 kts | 1° |
| 2026-05-07 18:37 | 43.69333 | -79.63419 | 562 ft | 0 kts | 1° |
| 2026-05-07 18:37 | 43.69334 | -79.63419 | 562 ft | 0 kts | 1° |
| 2026-05-07 18:37 | 43.69355 | -79.63423 | 567 ft | 8 kts | 343° |
| 2026-05-07 18:37 | 43.69406 | -79.63486 | 564 ft | 11 kts | 315° |
| 2026-05-07 18:38 | 43.69409 | -79.63516 | 564 ft | 1 kts | 224° |
| 2026-05-07 18:38 | 43.69403 | -79.63525 | 560 ft | 0 kts | 226° |
| 2026-05-07 18:38 | 43.69389 | -79.63546 | 563 ft | 16 kts | 226° |
| 2026-05-07 18:39 | 43.69129 | -79.63923 | 568 ft | 88 kts | 226° |
| 2026-05-07 18:39 | 43.68565 | -79.64738 | 563 ft | 144 kts | 226° |
| 2026-05-07 18:39 | 43.67789 | -79.65869 | 778 ft | 167 kts | 233° |
| 2026-05-07 18:39 | 43.67066 | -79.67074 | 1568 ft | 162 kts | 236° |
| 2026-05-07 18:40 | 43.66417 | -79.68347 | 2282 ft | 161 kts | 238° |
| 2026-05-07 18:40 | 43.65783 | -79.69590 | 3028 ft | 155 kts | 237° |
| 2026-05-07 18:40 | 43.65155 | -79.70843 | 3471 ft | 167 kts | 239° |
| 2026-05-07 18:40 | 43.64453 | -79.72257 | 3713 ft | 190 kts | 234° |
| 2026-05-07 18:41 | 43.63303 | -79.73387 | 3962 ft | 223 kts | 198° |
| 2026-05-07 18:41 | 43.61671 | -79.73234 | 4311 ft | 256 kts | 160° |
| 2026-05-07 18:41 | 43.60104 | -79.71892 | 4916 ft | 273 kts | 143° |
| 2026-05-07 18:41 | 43.58689 | -79.70120 | 5778 ft | 277 kts | 137° |
| 2026-05-07 18:42 | 43.57343 | -79.68233 | 6608 ft | 282 kts | 135° |
| 2026-05-07 18:42 | 43.56240 | -79.65980 | 7398 ft | 289 kts | 112° |
| 2026-05-07 18:42 | 43.55768 | -79.63272 | 8207 ft | 293 kts | 100° |
| 2026-05-07 18:42 | 43.55427 | -79.60467 | 8972 ft | 299 kts | 100° |
| 2026-05-07 18:43 | 43.55087 | -79.57613 | 9775 ft | 304 kts | 100° |
| 2026-05-07 18:43 | 43.54741 | -79.54710 | 10379 ft | 315 kts | 100° |
| 2026-05-07 18:43 | 43.54370 | -79.51619 | 10597 ft | 338 kts | 100° |
| 2026-05-07 18:43 | 43.53969 | -79.48308 | 10775 ft | 362 kts | 100° |
| 2026-05-07 18:44 | 43.53687 | -79.44787 | 11161 ft | 376 kts | 91° |
| 2026-05-07 18:44 | 43.53856 | -79.41159 | 11768 ft | 383 kts | 80° |
| 2026-05-07 18:44 | 43.54489 | -79.37570 | 12389 ft | 388 kts | 71° |
| 2026-05-07 18:44 | 43.55298 | -79.33993 | 13059 ft | 394 kts | 71° |
| 2026-05-07 18:45 | 43.56117 | -79.30360 | 13694 ft | 399 kts | 71° |
| 2026-05-07 18:45 | 43.56942 | -79.26680 | 14262 ft | 404 kts | 71° |
| 2026-05-07 18:45 | 43.57777 | -79.22951 | 14847 ft | 409 kts | 71° |
| 2026-05-07 18:45 | 43.58619 | -79.19185 | 15454 ft | 413 kts | 71° |
| 2026-05-07 18:46 | 43.59466 | -79.15375 | 16036 ft | 418 kts | 71° |
| 2026-05-07 18:46 | 43.60319 | -79.11517 | 16602 ft | 422 kts | 71° |
| 2026-05-07 18:46 | 43.61177 | -79.07621 | 17159 ft | 427 kts | 71° |
| 2026-05-07 18:46 | 43.62047 | -79.03678 | 17696 ft | 432 kts | 71° |
| 2026-05-07 18:47 | 43.62930 | -78.99688 | 18232 ft | 437 kts | 71° |
| 2026-05-07 18:47 | 43.63820 | -78.95660 | 18712 ft | 441 kts | 71° |
| 2026-05-07 18:47 | 43.64717 | -78.91590 | 19201 ft | 445 kts | 72° |
| 2026-05-07 18:47 | 43.65621 | -78.87481 | 19687 ft | 449 kts | 72° |
| 2026-05-07 18:48 | 43.66531 | -78.83339 | 20168 ft | 453 kts | 72° |
| 2026-05-07 18:48 | 43.67447 | -78.79157 | 20642 ft | 457 kts | 72° |
| 2026-05-07 18:48 | 43.68365 | -78.74944 | 21145 ft | 459 kts | 72° |
| 2026-05-07 18:48 | 43.69373 | -78.70743 | 21598 ft | 462 kts | 66° |
| 2026-05-07 18:49 | 43.70628 | -78.66641 | 22015 ft | 466 kts | 65° |
| 2026-05-07 18:49 | 43.71905 | -78.62507 | 22396 ft | 470 kts | 65° |
| 2026-05-07 18:49 | 43.73191 | -78.58337 | 22805 ft | 474 kts | 65° |
| 2026-05-07 18:49 | 43.74489 | -78.54121 | 23208 ft | 477 kts | 65° |
| 2026-05-07 18:50 | 43.75792 | -78.49881 | 23582 ft | 481 kts | 66° |
| 2026-05-07 18:50 | 43.77102 | -78.45605 | 23892 ft | 484 kts | 66° |
| 2026-05-07 18:50 | 43.78421 | -78.41298 | 24186 ft | 488 kts | 66° |
| 2026-05-07 18:50 | 43.79749 | -78.36956 | 24473 ft | 492 kts | 66° |
| 2026-05-07 18:51 | 43.81081 | -78.32580 | 24757 ft | 495 kts | 66° |
| 2026-05-07 18:51 | 43.82418 | -78.28173 | 25069 ft | 498 kts | 66° |
| 2026-05-07 18:51 | 43.83758 | -78.23744 | 25427 ft | 499 kts | 66° |
| 2026-05-07 18:51 | 43.85104 | -78.19288 | 25726 ft | 502 kts | 66° |
| 2026-05-07 18:52 | 43.86456 | -78.14812 | 26006 ft | 505 kts | 66° |
| 2026-05-07 18:52 | 43.87818 | -78.10310 | 26270 ft | 508 kts | 65° |
| 2026-05-07 18:52 | 43.89189 | -78.05775 | 26532 ft | 511 kts | 65° |
| 2026-05-07 18:52 | 43.90568 | -78.01212 | 26784 ft | 515 kts | 65° |
| 2026-05-07 18:53 | 43.91956 | -77.96623 | 27020 ft | 518 kts | 66° |
| 2026-05-07 18:53 | 43.93346 | -77.92000 | 27204 ft | 522 kts | 66° |
| 2026-05-07 18:53 | 43.94741 | -77.87329 | 27409 ft | 526 kts | 66° |
| 2026-05-07 18:53 | 43.96142 | -77.82628 | 27639 ft | 529 kts | 66° |
| 2026-05-07 18:54 | 43.97547 | -77.77905 | 27927 ft | 530 kts | 66° |
| 2026-05-07 18:54 | 43.98955 | -77.73167 | 28172 ft | 532 kts | 66° |
| 2026-05-07 18:54 | 44.00372 | -77.68402 | 28396 ft | 535 kts | 66° |
| 2026-05-07 18:54 | 44.01792 | -77.63618 | 28603 ft | 537 kts | 66° |
| 2026-05-07 18:55 | 44.03212 | -77.58813 | 28837 ft | 538 kts | 66° |
| 2026-05-07 18:55 | 44.04635 | -77.53983 | 29061 ft | 541 kts | 66° |
| 2026-05-07 18:55 | 44.06063 | -77.49135 | 29313 ft | 542 kts | 66° |
| 2026-05-07 18:55 | 44.07548 | -77.44316 | 29588 ft | 542 kts | 61° |
| 2026-05-07 18:56 | 44.09395 | -77.39765 | 29863 ft | 540 kts | 53° |
| 2026-05-07 18:56 | 44.11442 | -77.35382 | 30116 ft | 540 kts | 53° |
| 2026-05-07 18:56 | 44.13491 | -77.30991 | 30371 ft | 540 kts | 53° |
| 2026-05-07 18:56 | 44.15527 | -77.26613 | 30644 ft | 539 kts | 53° |
| 2026-05-07 18:57 | 44.17563 | -77.22228 | 30849 ft | 539 kts | 53° |
| 2026-05-07 18:57 | 44.21642 | -77.13414 | 30924 ft | 542 kts | 54° |
| 2026-05-07 18:58 | 44.25692 | -77.04630 | 30943 ft | 542 kts | 54° |
| 2026-05-07 18:58 | 44.29763 | -76.95768 | 30919 ft | 538 kts | 54° |
| 2026-05-07 18:59 | 44.33788 | -76.86964 | 30921 ft | 538 kts | 54° |
| 2026-05-07 18:59 | 44.37781 | -76.78204 | 30893 ft | 538 kts | 54° |
| 2026-05-07 19:00 | 44.41807 | -76.69381 | 30930 ft | 538 kts | 54° |
| 2026-05-07 19:00 | 44.45822 | -76.60546 | 30930 ft | 538 kts | 54° |
| 2026-05-07 19:01 | 44.49824 | -76.51712 | 30932 ft | 537 kts | 54° |
| 2026-05-07 19:01 | 44.53811 | -76.42870 | 30920 ft | 536 kts | 54° |
| 2026-05-07 19:02 | 44.57782 | -76.34028 | 30936 ft | 535 kts | 55° |
| 2026-05-07 19:02 | 44.61738 | -76.25187 | 30901 ft | 534 kts | 55° |
| 2026-05-07 19:03 | 44.65128 | -76.15881 | 30892 ft | 537 kts | 66° |
| 2026-05-07 19:03 | 44.67983 | -76.06182 | 30882 ft | 537 kts | 66° |
| 2026-05-07 19:04 | 44.70829 | -75.96467 | 30878 ft | 538 kts | 67° |
| 2026-05-07 19:04 | 44.73514 | -75.86673 | 30885 ft | 536 kts | 69° |
| 2026-05-07 19:04 | 44.74792 | -75.81758 | 30624 ft | 536 kts | 69° |
| 2026-05-07 19:05 | 44.76062 | -75.76825 | 30381 ft | 537 kts | 69° |
| 2026-05-07 19:05 | 44.77342 | -75.71885 | 30136 ft | 537 kts | 69° |
| 2026-05-07 19:05 | 44.78637 | -75.66948 | 29897 ft | 538 kts | 69° |
| 2026-05-07 19:05 | 44.79942 | -75.62025 | 29606 ft | 538 kts | 68° |
| 2026-05-07 19:06 | 44.81256 | -75.57086 | 29318 ft | 538 kts | 68° |
| 2026-05-07 19:06 | 44.83864 | -75.47230 | 28752 ft | 537 kts | 69° |
| 2026-05-07 19:06 | 44.85182 | -75.42318 | 28502 ft | 535 kts | 68° |
| 2026-05-07 19:07 | 44.86540 | -75.37444 | 28198 ft | 535 kts | 67° |
| 2026-05-07 19:07 | 44.87935 | -75.32575 | 27928 ft | 536 kts | 66° |
| 2026-05-07 19:07 | 44.89345 | -75.27705 | 27658 ft | 536 kts | 66° |
| 2026-05-07 19:07 | 44.90750 | -75.22838 | 27392 ft | 536 kts | 67° |
| 2026-05-07 19:08 | 44.92144 | -75.17968 | 27131 ft | 536 kts | 67° |
| 2026-05-07 19:08 | 44.93523 | -75.13086 | 26789 ft | 533 kts | 67° |
| 2026-05-07 19:08 | 44.94880 | -75.08232 | 25856 ft | 531 kts | 68° |
| 2026-05-07 19:08 | 44.96215 | -75.03405 | 25131 ft | 523 kts | 68° |
| 2026-05-07 19:09 | 44.97526 | -74.98649 | 24378 ft | 518 kts | 68° |
| 2026-05-07 19:09 | 44.98959 | -74.94019 | 23627 ft | 511 kts | 60° |
| 2026-05-07 19:09 | 45.00679 | -74.89666 | 22833 ft | 504 kts | 58° |
| 2026-05-07 19:09 | 45.02393 | -74.85387 | 22166 ft | 496 kts | 58° |
| 2026-05-07 19:10 | 45.04076 | -74.81167 | 21498 ft | 490 kts | 58° |
| 2026-05-07 19:10 | 45.05734 | -74.76997 | 20857 ft | 484 kts | 58° |
| 2026-05-07 19:10 | 45.07372 | -74.72876 | 20232 ft | 478 kts | 58° |
| 2026-05-07 19:10 | 45.08987 | -74.68801 | 19621 ft | 472 kts | 58° |
| 2026-05-07 19:11 | 45.10585 | -74.64764 | 19049 ft | 467 kts | 58° |
| 2026-05-07 19:11 | 45.12165 | -74.60781 | 18480 ft | 462 kts | 58° |
| 2026-05-07 19:11 | 45.13783 | -74.56888 | 17907 ft | 456 kts | 56° |
| 2026-05-07 19:11 | 45.15438 | -74.53095 | 17372 ft | 448 kts | 55° |
| 2026-05-07 19:12 | 45.17092 | -74.49393 | 16869 ft | 441 kts | 55° |
| 2026-05-07 19:12 | 45.18727 | -74.45746 | 16364 ft | 435 kts | 55° |
| 2026-05-07 19:12 | 45.20324 | -74.42158 | 16002 ft | 425 kts | 55° |
| 2026-05-07 19:12 | 45.21890 | -74.38606 | 15248 ft | 428 kts | 55° |
| 2026-05-07 19:13 | 45.23471 | -74.34990 | 14347 ft | 433 kts | 56° |
| 2026-05-07 19:13 | 45.25043 | -74.31361 | 13788 ft | 427 kts | 56° |
| 2026-05-07 19:13 | 45.26563 | -74.27821 | 12658 ft | 416 kts | 56° |
| 2026-05-07 19:13 | 45.28044 | -74.24359 | 11728 ft | 403 kts | 56° |
| 2026-05-07 19:14 | 45.29469 | -74.21022 | 10935 ft | 388 kts | 56° |
| 2026-05-07 19:14 | 45.30823 | -74.17850 | 10587 ft | 362 kts | 56° |
| 2026-05-07 19:14 | 45.32075 | -74.14911 | 10464 ft | 334 kts | 56° |
| 2026-05-07 19:14 | 45.33240 | -74.12173 | 10171 ft | 316 kts | 55° |
| 2026-05-07 19:15 | 45.34370 | -74.09537 | 9930 ft | 309 kts | 55° |
| 2026-05-07 19:15 | 45.35496 | -74.06956 | 9806 ft | 306 kts | 52° |
| 2026-05-07 19:15 | 45.36832 | -74.04646 | 9672 ft | 300 kts | 40° |
| 2026-05-07 19:15 | 45.38361 | -74.02652 | 9535 ft | 298 kts | 37° |
| 2026-05-07 19:16 | 45.39879 | -74.00698 | 9403 ft | 298 kts | 38° |
| 2026-05-07 19:16 | 45.41430 | -73.98683 | 9260 ft | 298 kts | 38° |
| 2026-05-07 19:16 | 45.42956 | -73.96695 | 8997 ft | 298 kts | 37° |
| 2026-05-07 19:16 | 45.44463 | -73.94730 | 8591 ft | 297 kts | 38° |
| 2026-05-07 19:17 | 45.45985 | -73.92747 | 8172 ft | 296 kts | 38° |
| 2026-05-07 19:17 | 45.47500 | -73.90775 | 7775 ft | 295 kts | 38° |
| 2026-05-07 19:17 | 45.49010 | -73.88808 | 7355 ft | 292 kts | 38° |
| 2026-05-07 19:17 | 45.50495 | -73.86867 | 6914 ft | 288 kts | 38° |
| 2026-05-07 19:18 | 45.51978 | -73.84927 | 6498 ft | 290 kts | 38° |
| 2026-05-07 19:18 | 45.53459 | -73.82987 | 6078 ft | 289 kts | 39° |
| 2026-05-07 19:18 | 45.54933 | -73.81055 | 5649 ft | 287 kts | 38° |
| 2026-05-07 19:18 | 45.56402 | -73.79128 | 5245 ft | 286 kts | 38° |
| 2026-05-07 19:19 | 45.57865 | -73.77212 | 4858 ft | 284 kts | 38° |
| 2026-05-07 19:19 | 45.59319 | -73.75305 | 4430 ft | 283 kts | 38° |
| 2026-05-07 19:19 | 45.60729 | -73.73451 | 4321 ft | 270 kts | 38° |
| 2026-05-07 19:19 | 45.62065 | -73.71686 | 4231 ft | 255 kts | 38° |
| 2026-05-07 19:20 | 45.63335 | -73.70012 | 4122 ft | 242 kts | 37° |
| 2026-05-07 19:20 | 45.64557 | -73.68401 | 4002 ft | 238 kts | 38° |
| 2026-05-07 19:20 | 45.65771 | -73.66808 | 3991 ft | 236 kts | 37° |
| 2026-05-07 19:20 | 45.66979 | -73.65220 | 3995 ft | 236 kts | 38° |
| 2026-05-07 19:21 | 45.68188 | -73.63629 | 3989 ft | 236 kts | 38° |
| 2026-05-07 19:21 | 45.69402 | -73.62032 | 3986 ft | 237 kts | 38° |
| 2026-05-07 19:21 | 45.70611 | -73.60431 | 3982 ft | 237 kts | 38° |
| 2026-05-07 19:21 | 45.71614 | -73.58558 | 3970 ft | 242 kts | 66° |
| 2026-05-07 19:22 | 45.71842 | -73.56181 | 3883 ft | 244 kts | 100° |
| 2026-05-07 19:22 | 45.71201 | -73.53980 | 3755 ft | 239 kts | 130° |
| 2026-05-07 19:22 | 45.69957 | -73.52533 | 3635 ft | 227 kts | 165° |
| 2026-05-07 19:22 | 45.68453 | -73.52265 | 3510 ft | 216 kts | 192° |
| 2026-05-07 19:23 | 45.67472 | -73.52432 | 3423 ft | 214 kts | 195° |
| 2026-05-07 19:23 | 45.66007 | -73.52770 | 3302 ft | 213 kts | 197° |
| 2026-05-07 19:23 | 45.64546 | -73.53137 | 3169 ft | 212 kts | 199° |
| 2026-05-07 19:23 | 45.63246 | -73.53975 | 3063 ft | 201 kts | 225° |
| 2026-05-07 19:24 | 45.62214 | -73.55309 | 2981 ft | 199 kts | 228° |
| 2026-05-07 19:24 | 45.61200 | -73.56657 | 2985 ft | 201 kts | 228° |
| 2026-05-07 19:24 | 45.60173 | -73.58014 | 2988 ft | 200 kts | 227° |
| 2026-05-07 19:24 | 45.59151 | -73.59362 | 2971 ft | 198 kts | 228° |
| 2026-05-07 19:25 | 45.58156 | -73.60671 | 2810 ft | 192 kts | 227° |
| 2026-05-07 19:25 | 45.57183 | -73.61952 | 2571 ft | 189 kts | 229° |
| 2026-05-07 19:25 | 45.56238 | -73.63195 | 2322 ft | 182 kts | 228° |
| 2026-05-07 19:25 | 45.55338 | -73.64378 | 2115 ft | 169 kts | 227° |
| 2026-05-07 19:26 | 45.54507 | -73.65470 | 1873 ft | 155 kts | 229° |
| 2026-05-07 19:26 | 45.53758 | -73.66452 | 1675 ft | 139 kts | 231° |
| 2026-05-07 19:26 | 45.53067 | -73.67361 | 1488 ft | 133 kts | 230° |
| 2026-05-07 19:26 | 45.52389 | -73.68261 | 1287 ft | 133 kts | 229° |
| 2026-05-07 19:27 | 45.51719 | -73.69148 | 1082 ft | 131 kts | 231° |
| 2026-05-07 19:27 | 45.51048 | -73.70031 | 925 ft | 133 kts | 229° |
| 2026-05-07 19:27 | 45.50369 | -73.70921 | 698 ft | 137 kts | 229° |
| 2026-05-07 19:27 | 45.49681 | -73.71826 | 479 ft | 132 kts | 229° |
| 2026-05-07 19:28 | 45.49008 | -73.72703 | 293 ft | 130 kts | 232° |
| 2026-05-07 19:28 | 45.48340 | -73.73579 | 158 ft | 131 kts | 230° |
| 2026-05-07 19:28 | 45.47724 | -73.74399 | 111 ft | 102 kts | 223° |
| 2026-05-07 19:28 | 45.47328 | -73.74921 | 114 ft | 60 kts | 223° |
| 2026-05-07 19:29 | 45.47052 | -73.75275 | 110 ft | 48 kts | 221° |
| 2026-05-07 19:29 | 45.46836 | -73.75525 | 108 ft | 29 kts | 207° |
| 2026-05-07 19:29 | 45.46659 | -73.75614 | 107 ft | 24 kts | 195° |
| 2026-05-07 19:29 | 45.46510 | -73.75662 | 105 ft | 21 kts | 192° |
| 2026-05-07 19:30 | 45.46384 | -73.75703 | 104 ft | 18 kts | 191° |
| 2026-05-07 19:30 | 45.46260 | -73.75729 | 104 ft | 18 kts | 180° |
| 2026-05-07 19:30 | 45.46160 | -73.75724 | 102 ft | 13 kts | 178° |
| 2026-05-07 19:30 | 45.46079 | -73.75714 | 103 ft | 10 kts | 158° |
| 2026-05-07 19:31 | 45.46059 | -73.75625 | 104 ft | 12 kts | 86° |
| 2026-05-07 19:31 | 45.46065 | -73.75496 | 104 ft | 13 kts | 86° |
| 2026-05-07 19:31 | 45.46059 | -73.75374 | 104 ft | 11 kts | 114° |
| 2026-05-07 19:31 | 45.46024 | -73.75279 | 105 ft | 11 kts | 116° |
| 2026-05-07 19:32 | 45.46003 | -73.75176 | 105 ft | 11 kts | 89° |
| 2026-05-07 19:32 | 45.46010 | -73.75075 | 105 ft | 10 kts | 88° |
| 2026-05-07 19:32 | 45.45993 | -73.74987 | 104 ft | 10 kts | 123° |
| 2026-05-07 19:32 | 45.45981 | -73.74902 | 105 ft | 9 kts | 86° |
| 2026-05-07 19:33 | 45.45965 | -73.74849 | 104 ft | 4 kts | 182° |
| 2026-05-07 19:33 | 45.45946 | -73.74849 | 105 ft | 2 kts | 178° |
| 2026-05-07 19:33 | 45.45935 | -73.74848 | 105 ft | 1 kts | 178° |
| 2026-05-07 19:33 | 45.45929 | -73.74848 | 105 ft | 0 kts | 177° |
| 2026-05-07 19:39 | 45.45930 | -73.74848 | 105 ft | 0 kts | 177° |